Time;durP1;ratioP1;P1;durP2;ratioP2;P2;SDS_P1;SDS_P2;PMS_P1;PMS_P2;Temp;Humidity;BMP_temperature;BMP_pressure;BME280_temperature;BME280_humidity;BME280_pressure;Samples;Min_cycle;Max_cycle;Signal;HPM_P1;HPM_P2
2023/10/03 00:00:31;;;;;;;10.68;9.68;;;;;;;;;;5063477;28;20059;-51
2023/10/03 00:02:57;;;;;;;;;;;;;;;;;;5052763;28;20027;-52
2023/10/03 00:05:28;;;;;;;9.68;8.48;;;;;;;;;;5056008;28;19916;-50
2023/10/03 00:07:54;;;;;;;10.63;9.52;;;;;;;;;;5055991;28;20059;-51
2023/10/03 00:10:20;;;;;;;10.48;9.43;;;;;;;;;;5055423;28;20055;-50
2023/10/03 00:12:48;;;;;;;10.20;9.13;;;;;;;;;;5059314;28;20371;-52
2023/10/03 00:15:15;;;;;;;11.60;9.25;;;;;;;;;;5050347;28;20029;-51
2023/10/03 00:17:41;;;;;;;10.02;9.07;;;;;;;;;;5062212;28;20025;-52
2023/10/03 00:20:08;;;;;;;13.27;10.40;;;;;;;;;;5060914;28;20032;-52
2023/10/03 00:22:34;;;;;;;10.70;9.60;;;;;;;;;;5058112;28;20401;-54
2023/10/03 00:25:01;;;;;;;13.10;11.05;;;;;;;;;;5059430;28;20070;-51
2023/10/03 00:27:28;;;;;;;12.25;11.05;;;;;;;;;;5065371;28;20040;-52
2023/10/03 00:29:55;;;;;;;11.55;10.38;;;;;;;;;;5061442;28;20106;-53
2023/10/03 00:32:20;;;;;;;12.68;11.48;;;;;;;;;;5062361;28;20040;-52
2023/10/03 00:34:46;;;;;;;11.82;10.60;;;;;;;;;;5057914;28;20025;-50
2023/10/03 00:37:11;;;;;;;11.27;10.27;;;;;;;;;;5057011;28;20039;-52
2023/10/03 00:39:37;;;;;;;12.02;10.77;;;;;;;;;;5060119;28;20059;-47
2023/10/03 00:42:08;;;;;;;11.60;10.45;;;;;;;;;;5058803;28;20109;-52
2023/10/03 00:44:33;;;;;;;12.73;11.45;;;;;;;;;;5059179;28;20089;-50
2023/10/03 00:46:59;;;;;;;11.75;10.52;;;;;;;;;;5060757;28;20498;-50
2023/10/03 00:49:24;;;;;;;11.80;10.60;;;;;;;;;;5058555;28;20024;-49
2023/10/03 00:51:51;;;;;;;12.20;10.98;;;;;;;;;;5056351;28;20083;-51
2023/10/03 00:54:17;;;;;;;12.27;11.05;;;;;;;;;;5053401;28;20233;-53
2023/10/03 00:56:43;;;;;;;12.93;11.63;;;;;;;;;;5059258;28;20044;-52
2023/10/03 00:59:10;;;;;;;12.90;11.55;;;;;;;;;;5058831;28;20029;-51
2023/10/03 01:01:36;;;;;;;12.32;10.18;;;;;;;;;;5058991;28;20150;-51
2023/10/03 01:04:16;;;;;;;11.68;10.48;;;;;;;;;;5056371;28;20598;-50
2023/10/03 01:06:42;;;;;;;11.88;10.75;;;;;;;;;;5050790;28;20044;-52
2023/10/03 01:09:15;;;;;;;14.10;12.70;;;;;;;;;;5054754;28;20037;-52
2023/10/03 01:11:40;;;;;;;11.50;10.07;;;;;;;;;;5060204;28;20032;-48
2023/10/03 01:14:06;;;;;;;13.85;12.55;;;;;;;;;;5059694;28;20405;-51
2023/10/03 01:16:34;;;;;;;13.35;12.18;;;;;;;;;;5058832;28;20040;-49
2023/10/03 01:19:20;;;;;;;13.70;12.30;;;;;;;;;;5056278;28;20044;-50
2023/10/03 01:21:46;;;;;;;13.40;10.82;;;;;;;;;;5053205;28;20044;-48
2023/10/03 01:24:20;;;;;;;13.05;11.18;;;;;;;;;;5061659;28;20051;-49
2023/10/03 01:26:46;;;;;;;12.13;10.93;;;;;;;;;;5058944;28;20082;-49
2023/10/03 01:29:11;;;;;;;11.73;10.52;;;;;;;;;;5058103;28;20116;-52
2023/10/03 01:31:36;;;;;;;14.73;13.30;;;;;;;;;;5053904;28;20518;-48
2023/10/03 01:34:05;;;;;;;14.27;12.93;;;;;;;;;;5057542;28;20082;-51
2023/10/03 01:36:31;;;;;;;12.10;10.90;;;;;;;;;;5055212;28;20581;-51
2023/10/03 01:38:56;;;;;;;13.07;11.88;;;;;;;;;;5057278;28;20120;-51
2023/10/03 01:41:22;;;;;;;12.63;11.43;;;;;;;;;;5052639;28;20041;-52
2023/10/03 01:43:48;;;;;;;12.63;11.32;;;;;;;;;;5066692;28;20020;-50
2023/10/03 01:46:13;;;;;;;12.05;10.75;;;;;;;;;;5059080;28;20125;-49
2023/10/03 01:48:39;;;;;;;13.95;12.65;;;;;;;;;;5058078;28;20056;-52
2023/10/03 01:51:06;;;;;;;12.23;10.70;;;;;;;;;;5061021;28;20055;-53
2023/10/03 01:53:32;;;;;;;13.23;11.95;;;;;;;;;;5057329;28;20090;-51
2023/10/03 01:55:57;;;;;;;12.95;11.18;;;;;;;;;;5059239;28;20045;-49
2023/10/03 01:58:24;;;;;;;12.60;10.60;;;;;;;;;;5059202;28;20040;-49
2023/10/03 02:00:50;;;;;;;12.38;11.07;;;;;;;;;;5056195;28;20040;-51
2023/10/03 02:03:16;;;;;;;11.27;10.13;;;;;;;;;;5057731;28;20036;-49
2023/10/03 02:05:42;;;;;;;15.65;11.18;;;;;;;;;;5057576;28;20038;-51
2023/10/03 02:08:17;;;;;;;13.85;12.40;;;;;;;;;;5058788;28;20475;-50
2023/10/03 02:10:47;;;;;;;11.35;9.70;;;;;;;;;;5058844;28;20041;-51
2023/10/03 02:13:17;;;;;;;11.95;10.65;;;;;;;;;;5057127;28;20075;-51
2023/10/03 02:15:49;;;;;;;13.52;11.73;;;;;;;;;;5053622;28;20466;-52
2023/10/03 02:18:17;;;;;;;13.45;12.10;;;;;;;;;;5049957;28;20541;-50
2023/10/03 02:20:50;;;;;;;14.68;11.80;;;;;;;;;;5050306;28;20045;-51
2023/10/03 02:23:19;;;;;;;12.60;11.27;;;;;;;;;;5057118;28;20044;-50
2023/10/03 02:25:50;;;;;;;12.30;10.70;;;;;;;;;;5056499;28;20063;-52
2023/10/03 02:28:17;;;;;;;12.20;10.93;;;;;;;;;;5070011;28;20474;-51
2023/10/03 02:30:50;;;;;;;12.00;10.82;;;;;;;;;;5061782;28;20577;-50
2023/10/03 02:33:17;;;;;;;13.07;11.23;;;;;;;;;;5063447;28;20029;-52
2023/10/03 02:35:44;;;;;;;11.85;10.73;;;;;;;;;;5053695;28;20075;-50
2023/10/03 02:38:20;;;;;;;11.57;10.20;;;;;;;;;;5054357;28;20025;-52
2023/10/03 02:40:46;;;;;;;12.20;10.98;;;;;;;;;;5061043;28;20043;-53
2023/10/03 02:43:12;;;;;;;12.57;11.27;;;;;;;;;;5056812;28;20526;-52
2023/10/03 02:45:38;;;;;;;12.80;10.05;;;;;;;;;;5068015;28;20033;-51
2023/10/03 02:48:14;;;;;;;9.73;8.73;;;;;;;;;;5056337;28;20031;-53
2023/10/03 02:50:44;;;;;;;10.95;9.85;;;;;;;;;;5060852;28;20039;-51
2023/10/03 02:53:14;;;;;;;10.88;9.77;;;;;;;;;;5056731;28;20079;-51
2023/10/03 02:55:41;;;;;;;11.18;10.18;;;;;;;;;;5057312;28;20459;-50
2023/10/03 02:58:07;;;;;;;10.38;9.32;;;;;;;;;;5061753;28;20035;-50
2023/10/03 03:00:33;;;;;;;9.55;8.70;;;;;;;;;;5062754;28;20096;-50
2023/10/03 03:02:59;;;;;;;9.30;8.27;;;;;;;;;;5057321;28;20498;-48
2023/10/03 03:05:35;;;;;;;9.50;8.65;;;;;;;;;;5060382;28;20530;-52
2023/10/03 03:08:02;;;;;;;10.57;9.60;;;;;;;;;;5044545;28;20084;-53
2023/10/03 03:10:28;;;;;;;11.13;9.60;;;;;;;;;;5058578;28;20368;-52
2023/10/03 03:12:54;;;;;;;9.02;8.23;;;;;;;;;;5058891;28;20055;-50
2023/10/03 03:15:23;;;;;;;9.50;8.70;;;;;;;;;;5058261;28;20051;-50
2023/10/03 03:17:51;;;;;;;7.80;7.00;;;;;;;;;;5057342;28;20028;-50
2023/10/03 03:20:18;;;;;;;8.82;8.10;;;;;;;;;;5055276;28;20056;-50
2023/10/03 03:22:48;;;;;;;9.43;8.45;;;;;;;;;;5057059;28;20116;-52
2023/10/03 03:25:24;;;;;;;8.23;7.43;;;;;;;;;;5047505;28;20025;-52
2023/10/03 03:27:54;;;;;;;9.57;8.65;;;;;;;;;;5057583;28;20058;-49
2023/10/03 03:30:33;;;;;;;8.70;7.80;;;;;;;;;;5061473;28;20036;-49
2023/10/03 03:32:59;;;;;;;9.50;8.57;;;;;;;;;;5056631;28;20036;-52
2023/10/03 03:35:25;;;;;;;7.85;6.90;;;;;;;;;;5055113;28;20066;-49
2023/10/03 03:37:56;;;;;;;9.38;8.27;;;;;;;;;;5055311;28;20037;-52
2023/10/03 03:40:45;;;;;;;8.73;7.35;;;;;;;;;;5051736;28;20044;-53
2023/10/03 03:43:12;;;;;;;11.65;7.75;;;;;;;;;;5055070;28;20478;-52
2023/10/03 03:45:37;;;;;;;8.85;7.97;;;;;;;;;;5055387;28;20494;-51
2023/10/03 03:48:06;;;;;;;8.93;7.57;;;;;;;;;;5058731;28;20137;-49
2023/10/03 03:50:32;;;;;;;7.18;6.47;;;;;;;;;;5060994;28;20083;-52
2023/10/03 03:53:02;;;;;;;12.45;8.18;;;;;;;;;;5055918;28;20033;-50
2023/10/03 03:55:29;;;;;;;8.60;7.85;;;;;;;;;;5055531;28;20052;-50
2023/10/03 03:58:14;;;;;;;7.63;6.93;;;;;;;;;;5054984;28;20055;-51
2023/10/03 04:00:44;;;;;;;8.80;7.93;;;;;;;;;;5059335;28;20055;-50
2023/10/03 04:03:13;;;;;;;8.57;7.55;;;;;;;;;;5062881;28;20032;-53
2023/10/03 04:05:39;;;;;;;7.55;6.85;;;;;;;;;;5056308;28;20076;-53
2023/10/03 04:08:05;;;;;;;11.52;8.05;;;;;;;;;;5065223;28;20045;-51
2023/10/03 04:10:32;;;;;;;9.27;8.27;;;;;;;;;;5053973;28;20083;-49
2023/10/03 04:12:57;;;;;;;8.70;7.90;;;;;;;;;;5059506;28;20064;-53
2023/10/03 04:15:23;;;;;;;9.02;7.68;;;;;;;;;;5055190;28;20044;-50
2023/10/03 04:17:49;;;;;;;8.63;6.63;;;;;;;;;;5054290;28;20025;-54
2023/10/03 04:22:48;;;;;;;8.07;7.28;;;;;;;;;;5059158;28;20599;-52
2023/10/03 04:25:14;;;;;;;8.23;7.45;;;;;;;;;;5050266;28;20050;-52
2023/10/03 04:27:40;;;;;;;7.72;7.03;;;;;;;;;;5062318;28;20427;-52
2023/10/03 04:30:09;;;;;;;8.25;6.57;;;;;;;;;;5052211;28;20037;-51
2023/10/03 04:32:35;;;;;;;7.85;7.05;;;;;;;;;;5059653;28;20079;-52
2023/10/03 04:35:00;;;;;;;7.95;6.45;;;;;;;;;;5049252;28;20115;-51
2023/10/03 04:37:26;;;;;;;9.27;8.25;;;;;;;;;;5051366;28;20025;-50
2023/10/03 04:39:51;;;;;;;8.57;7.68;;;;;;;;;;5049765;28;20495;-51
2023/10/03 04:42:17;;;;;;;9.25;8.55;;;;;;;;;;5050532;28;20032;-51
2023/10/03 04:44:43;;;;;;;7.78;7.00;;;;;;;;;;5052986;28;20025;-52
2023/10/03 04:47:11;;;;;;;8.05;6.97;;;;;;;;;;5049910;28;20513;-49
2023/10/03 04:49:37;;;;;;;8.18;7.47;;;;;;;;;;5055308;28;20040;-48
2023/10/03 04:52:07;;;;;;;8.32;7.55;;;;;;;;;;5059118;28;20465;-49
2023/10/03 04:54:33;;;;;;;8.80;7.85;;;;;;;;;;5054225;28;20151;-47
2023/10/03 04:56:58;;;;;;;9.02;7.85;;;;;;;;;;5052740;28;20061;-50
2023/10/03 04:59:25;;;;;;;8.90;6.50;;;;;;;;;;5051708;28;20037;-50
2023/10/03 05:01:50;;;;;;;8.50;7.70;;;;;;;;;;5052068;28;20698;-49
2023/10/03 05:04:16;;;;;;;8.10;6.88;;;;;;;;;;5051790;28;20028;-52
2023/10/03 05:06:43;;;;;;;7.45;6.53;;;;;;;;;;5055272;28;20128;-51
2023/10/03 05:09:08;;;;;;;8.50;7.80;;;;;;;;;;5055346;28;20541;-52
2023/10/03 05:11:34;;;;;;;8.10;7.25;;;;;;;;;;5057488;28;20044;-53
2023/10/03 05:14:00;;;;;;;7.68;6.88;;;;;;;;;;5057676;28;20028;-50
2023/10/03 05:16:26;;;;;;;8.05;6.30;;;;;;;;;;5056122;28;20033;-51
2023/10/03 05:18:51;;;;;;;7.70;6.93;;;;;;;;;;5057667;28;20040;-53
2023/10/03 05:21:16;;;;;;;7.50;6.85;;;;;;;;;;5054969;28;20446;-52
2023/10/03 05:23:42;;;;;;;8.05;7.25;;;;;;;;;;5059029;28;20399;-50
2023/10/03 05:26:07;;;;;;;9.77;7.47;;;;;;;;;;5055455;28;20076;-52
2023/10/03 05:28:37;;;;;;;7.93;7.10;;;;;;;;;;5050631;28;20052;-53
2023/10/03 05:31:03;;;;;;;9.70;8.30;;;;;;;;;;5053158;28;20045;-54
2023/10/03 05:33:28;;;;;;;8.55;6.72;;;;;;;;;;5054302;28;20147;-53
2023/10/03 05:35:54;;;;;;;6.40;5.78;;;;;;;;;;5043710;28;20033;-53
2023/10/03 05:38:19;;;;;;;7.68;7.05;;;;;;;;;;5052503;28;20029;-52
2023/10/03 05:40:46;;;;;;;7.10;6.40;;;;;;;;;;5048744;28;20069;-52
2023/10/03 05:43:11;;;;;;;7.57;6.85;;;;;;;;;;5051346;28;20025;-52
2023/10/03 05:45:37;;;;;;;6.80;6.10;;;;;;;;;;5058843;28;20082;-52
2023/10/03 05:48:03;;;;;;;7.03;6.45;;;;;;;;;;5055193;28;20036;-52
2023/10/03 05:50:28;;;;;;;8.73;6.88;;;;;;;;;;5052635;28;20169;-52
2023/10/03 05:52:54;;;;;;;9.50;8.57;;;;;;;;;;5061950;28;20033;-53
2023/10/03 05:55:19;;;;;;;8.35;6.88;;;;;;;;;;5058528;28;20037;-51
2023/10/03 05:57:45;;;;;;;7.88;7.07;;;;;;;;;;5052912;28;20074;-51
2023/10/03 06:00:19;;;;;;;6.93;6.22;;;;;;;;;;5068259;28;20490;-52
2023/10/03 06:02:47;;;;;;;7.25;6.57;;;;;;;;;;5057749;28;20028;-54
2023/10/03 06:05:13;;;;;;;9.82;6.95;;;;;;;;;;5057642;28;20067;-54
2023/10/03 06:07:41;;;;;;;9.38;7.45;;;;;;;;;;5050308;28;20495;-53
2023/10/03 06:10:10;;;;;;;7.90;7.10;;;;;;;;;;5047685;28;20034;-50
2023/10/03 06:12:36;;;;;;;8.95;8.13;;;;;;;;;;5054778;28;20174;-52
2023/10/03 06:15:03;;;;;;;8.30;7.50;;;;;;;;;;5052175;28;20021;-52
2023/10/03 06:17:31;;;;;;;8.45;7.30;;;;;;;;;;5053898;28;20053;-52
2023/10/03 06:19:57;;;;;;;7.68;6.63;;;;;;;;;;5048094;28;20063;-53
2023/10/03 06:22:22;;;;;;;7.78;6.50;;;;;;;;;;5048968;28;20056;-52
2023/10/03 06:24:49;;;;;;;7.95;7.13;;;;;;;;;;5054646;28;20024;-53
2023/10/03 06:27:14;;;;;;;9.35;8.55;;;;;;;;;;5064976;28;20069;-52
2023/10/03 06:29:40;;;;;;;8.85;7.93;;;;;;;;;;5053736;28;20025;-54
2023/10/03 06:32:06;;;;;;;8.02;6.13;;;;;;;;;;5057145;28;20045;-53
2023/10/03 06:34:33;;;;;;;6.78;6.18;;;;;;;;;;5056084;28;20263;-53
2023/10/03 06:36:58;;;;;;;7.57;6.88;;;;;;;;;;5049515;28;20044;-53
2023/10/03 06:39:24;;;;;;;7.85;7.15;;;;;;;;;;5053290;28;20028;-53
2023/10/03 06:41:50;;;;;;;10.60;8.75;;;;;;;;;;5056112;28;20049;-52
2023/10/03 06:44:16;;;;;;;9.07;6.63;;;;;;;;;;5044799;28;20052;-51
2023/10/03 06:46:42;;;;;;;7.80;7.07;;;;;;;;;;5052743;28;20033;-52
2023/10/03 06:49:10;;;;;;;7.88;7.10;;;;;;;;;;5047274;28;20036;-51
2023/10/03 06:51:36;;;;;;;7.63;6.90;;;;;;;;;;5050045;28;20044;-52
2023/10/03 06:54:02;;;;;;;8.57;7.45;;;;;;;;;;5049700;28;20096;-51
2023/10/03 06:56:32;;;;;;;7.47;6.78;;;;;;;;;;5051738;28;20540;-52
2023/10/03 06:58:58;;;;;;;9.13;6.80;;;;;;;;;;5058237;28;20078;-54
2023/10/03 07:01:23;;;;;;;7.63;5.68;;;;;;;;;;5054627;28;20139;-52
2023/10/03 07:03:48;;;;;;;8.90;7.90;;;;;;;;;;5066842;28;20028;-48
2023/10/03 07:06:14;;;;;;;6.93;6.22;;;;;;;;;;5058296;28;20040;-52
2023/10/03 07:08:41;;;;;;;6.97;6.28;;;;;;;;;;5056626;28;20086;-53
2023/10/03 07:11:10;;;;;;;7.95;6.03;;;;;;;;;;5059252;28;20556;-51
2023/10/03 07:13:36;;;;;;;10.38;7.28;;;;;;;;;;5059571;28;20037;-49
2023/10/03 07:16:02;;;;;;;8.65;6.97;;;;;;;;;;5055780;28;20401;-50
2023/10/03 07:18:27;;;;;;;6.75;5.97;;;;;;;;;;5054340;28;20028;-50
2023/10/03 07:20:55;;;;;;;9.02;8.13;;;;;;;;;;5062532;28;20032;-51
2023/10/03 07:23:21;;;;;;;7.60;6.90;;;;;;;;;;5052413;28;20521;-52
2023/10/03 07:25:46;;;;;;;6.90;6.20;;;;;;;;;;5056082;28;20029;-53
2023/10/03 07:28:12;;;;;;;7.97;6.70;;;;;;;;;;5057999;28;20379;-52
2023/10/03 07:30:38;;;;;;;9.20;6.00;;;;;;;;;;5057002;28;20025;-53
2023/10/03 07:33:05;;;;;;;8.57;7.72;;;;;;;;;;5054890;28;20502;-50
2023/10/03 07:35:32;;;;;;;7.60;6.90;;;;;;;;;;5061602;28;20041;-54
2023/10/03 07:37:58;;;;;;;6.82;6.15;;;;;;;;;;5060942;28;20486;-53
2023/10/03 07:40:23;;;;;;;7.47;6.50;;;;;;;;;;5054317;28;20040;-53
2023/10/03 07:42:49;;;;;;;6.95;5.72;;;;;;;;;;5063672;28;20029;-49
2023/10/03 07:45:15;;;;;;;6.85;5.90;;;;;;;;;;5054412;28;20025;-54
2023/10/03 07:47:41;;;;;;;7.72;7.03;;;;;;;;;;5052055;28;20024;-50
2023/10/03 07:50:07;;;;;;;7.57;6.88;;;;;;;;;;5055620;28;20044;-52
2023/10/03 07:52:33;;;;;;;8.73;7.80;;;;;;;;;;5058903;28;20056;-50
2023/10/03 07:55:00;;;;;;;6.88;6.00;;;;;;;;;;5054265;28;20051;-52
2023/10/03 07:57:25;;;;;;;7.28;6.53;;;;;;;;;;5051525;28;20817;-50
2023/10/03 07:59:52;;;;;;;8.05;7.03;;;;;;;;;;5056002;28;20022;-54
2023/10/03 08:02:17;;;;;;;7.45;6.75;;;;;;;;;;5044785;28;20036;-52
2023/10/03 08:04:46;;;;;;;6.40;5.63;;;;;;;;;;5053276;28;20115;-51
2023/10/03 08:07:21;;;;;;;6.15;5.55;;;;;;;;;;5058127;28;20128;-48
2023/10/03 08:09:50;;;;;;;7.45;6.75;;;;;;;;;;5061180;28;20036;-54
2023/10/03 08:12:23;;;;;;;;;;;;;;;;;;5054881;28;20036;-48
2023/10/03 08:14:52;;;;;;;6.93;6.10;;;;;;;;;;5058788;28;19909;-51
2023/10/03 08:17:26;;;;;;;7.35;6.32;;;;;;;;;;5051785;28;20055;-50
2023/10/03 08:19:51;;;;;;;8.45;6.47;;;;;;;;;;5055910;28;20032;-49
2023/10/03 08:22:17;;;;;;;9.30;6.20;;;;;;;;;;5053671;28;20029;-53
2023/10/03 08:24:43;;;;;;;7.07;6.07;;;;;;;;;;5061067;28;20035;-51
2023/10/03 08:27:19;;;;;;;6.82;5.32;;;;;;;;;;5062142;28;20067;-53
2023/10/03 08:29:50;;;;;;;6.00;5.32;;;;;;;;;;5053292;28;20029;-52
2023/10/03 08:32:17;;;;;;;5.75;4.88;;;;;;;;;;5047882;28;20075;-49
2023/10/03 08:34:44;;;;;;;6.18;5.57;;;;;;;;;;5051769;28;20021;-50
2023/10/03 08:37:18;;;;;;;6.88;5.55;;;;;;;;;;5048136;28;20040;-51
2023/10/03 08:39:45;;;;;;;4.78;4.38;;;;;;;;;;5058130;28;20051;-52
2023/10/03 08:42:34;;;;;;;6.47;5.70;;;;;;;;;;5060932;28;20060;-49
2023/10/03 08:45:16;;;;;;;5.95;4.97;;;;;;;;;;5058033;28;20016;-50
2023/10/03 08:47:47;;;;;;;6.72;4.78;;;;;;;;;;5060057;28;20017;-54
2023/10/03 08:50:29;;;;;;;5.80;5.15;;;;;;;;;;5060409;28;20098;-51
2023/10/03 08:52:56;;;;;;;6.95;6.35;;;;;;;;;;5063940;28;20102;-47
2023/10/03 08:55:26;;;;;;;5.63;4.85;;;;;;;;;;5056329;28;20593;-49
2023/10/03 08:57:52;;;;;;;6.22;5.03;;;;;;;;;;5056028;28;20049;-51
2023/10/03 09:00:25;;;;;;;7.22;5.43;;;;;;;;;;5063773;28;20032;-54
2023/10/03 09:02:54;;;;;;;5.60;5.03;;;;;;;;;;5057665;28;20021;-51
2023/10/03 09:05:22;;;;;;;6.47;5.25;;;;;;;;;;5049722;28;20390;-52
2023/10/03 09:07:49;;;;;;;5.45;4.95;;;;;;;;;;5057374;28;20048;-51
2023/10/03 09:10:22;;;;;;;5.60;4.53;;;;;;;;;;5051578;28;20021;-47
2023/10/03 09:13:03;;;;;;;6.55;5.53;;;;;;;;;;5054020;28;20035;-48
2023/10/03 09:15:32;;;;;;;5.50;4.68;;;;;;;;;;5058375;28;20101;-51
2023/10/03 09:17:58;;;;;;;7.22;6.32;;;;;;;;;;5063429;28;20032;-50
2023/10/03 09:20:31;;;;;;;6.60;6.00;;;;;;;;;;5070929;28;20079;-47
2023/10/03 09:23:06;;;;;;;6.85;5.43;;;;;;;;;;5057588;28;20024;-49
2023/10/03 09:25:33;;;;;;;6.70;5.97;;;;;;;;;;5059717;28;20032;-48
2023/10/03 09:28:06;;;;;;;8.10;6.22;;;;;;;;;;5060354;28;20033;-48
2023/10/03 09:30:38;;;;;;;6.55;5.53;;;;;;;;;;5064714;28;20035;-48
2023/10/03 09:33:08;;;;;;;7.85;7.03;;;;;;;;;;5057267;28;20036;-48
2023/10/03 09:35:35;;;;;;;8.40;7.03;;;;;;;;;;5056703;28;20047;-51
2023/10/03 09:38:06;;;;;;;8.23;6.53;;;;;;;;;;5061301;28;20619;-48
2023/10/03 09:40:49;;;;;;;6.63;5.82;;;;;;;;;;5062034;28;20037;-49
2023/10/03 09:43:27;;;;;;;7.75;6.95;;;;;;;;;;5057001;28;20032;-49
2023/10/03 09:45:56;;;;;;;7.78;7.10;;;;;;;;;;5052498;28;20036;-50
2023/10/03 09:48:24;;;;;;;8.88;7.80;;;;;;;;;;5064003;28;20073;-47
2023/10/03 09:50:55;;;;;;;10.35;7.40;;;;;;;;;;5057807;28;20036;-47
2023/10/03 09:53:30;;;;;;;10.00;7.65;;;;;;;;;;5059854;28;20389;-48
2023/10/03 09:55:56;;;;;;;7.72;7.05;;;;;;;;;;5062196;28;20435;-48
2023/10/03 09:58:25;;;;;;;8.52;7.28;;;;;;;;;;5059227;28;20136;-48
2023/10/03 10:00:55;;;;;;;7.53;6.75;;;;;;;;;;5059147;28;20053;-50
2023/10/03 10:03:26;;;;;;;8.38;7.65;;;;;;;;;;5053639;28;20025;-52
2023/10/03 10:06:12;;;;;;;7.28;6.57;;;;;;;;;;5058440;28;20035;-54
2023/10/03 10:08:41;;;;;;;8.75;7.88;;;;;;;;;;5056141;28;20496;-52
2023/10/03 10:11:10;;;;;;;9.43;7.03;;;;;;;;;;5050638;28;20033;-51
2023/10/03 10:13:44;;;;;;;8.80;6.53;;;;;;;;;;5050490;28;20946;-53
2023/10/03 10:18:45;;;;;;;6.68;6.18;;;;;;;;;;5040767;28;20082;-52
2023/10/03 10:21:36;;;;;;;5.40;4.97;;;;;;;;;;5042365;28;20060;-53
2023/10/03 10:24:20;;;;;;;5.03;4.47;;;;;;;;;;5057448;28;20436;-54
2023/10/03 10:26:53;;;;;;;7.88;5.70;;;;;;;;;;5044762;28;20033;-52
2023/10/03 10:29:21;;;;;;;5.78;5.32;;;;;;;;;;5057244;28;20029;-54
2023/10/03 10:31:57;;;;;;;5.13;4.65;;;;;;;;;;5066441;28;20436;-54
2023/10/03 10:34:22;;;;;;;5.32;4.10;;;;;;;;;;5056514;28;20076;-53
2023/10/03 10:37:01;;;;;;;5.22;4.88;;;;;;;;;;5055949;28;20675;-54
2023/10/03 10:40:09;;;;;;;4.90;4.20;;;;;;;;;;5053826;28;20096;-49
2023/10/03 10:43:01;;;;;;;4.25;3.92;;;;;;;;;;5056227;28;20037;-54
2023/10/03 10:45:37;;;;;;;3.92;3.53;;;;;;;;;;5051594;28;20040;-52
2023/10/03 10:48:04;;;;;;;3.85;3.55;;;;;;;;;;5058063;28;20025;-51
2023/10/03 10:51:04;;;;;;;3.80;3.30;;;;;;;;;;5055552;28;20468;-49
2023/10/03 10:53:44;;;;;;;4.72;4.22;;;;;;;;;;5058683;28;20033;-50
2023/10/03 10:56:11;;;;;;;7.00;5.38;;;;;;;;;;5049412;28;20037;-51
2023/10/03 10:58:50;;;;;;;4.65;4.35;;;;;;;;;;5058588;28;20470;-50
2023/10/03 11:01:17;;;;;;;4.45;3.70;;;;;;;;;;5050928;28;20064;-53
2023/10/03 11:03:43;;;;;;;4.63;3.80;;;;;;;;;;5066844;28;20032;-51
2023/10/03 11:06:19;;;;;;;3.85;3.33;;;;;;;;;;5053149;28;20049;-52
2023/10/03 11:08:49;;;;;;;4.28;3.90;;;;;;;;;;5068432;28;20041;-49
2023/10/03 11:11:15;;;;;;;4.07;3.67;;;;;;;;;;5055796;28;20394;-53
2023/10/03 11:13:51;;;;;;;4.13;3.83;;;;;;;;;;5058385;28;20025;-52
2023/10/03 11:16:27;;;;;;;4.20;3.90;;;;;;;;;;5058187;28;20425;-52
2023/10/03 11:18:54;;;;;;;4.90;3.75;;;;;;;;;;5053570;28;20095;-51
2023/10/03 11:21:23;;;;;;;4.40;3.97;;;;;;;;;;5054055;28;20036;-53
2023/10/03 11:24:28;;;;;;;3.75;3.42;;;;;;;;;;5047428;28;20396;-54
2023/10/03 11:26:57;;;;;;;4.75;3.35;;;;;;;;;;4962779;28;20053;-52
2023/10/03 11:29:36;;;;;;;4.45;4.05;;;;;;;;;;4962531;28;20023;-49
2023/10/03 11:32:02;;;;;;;4.68;4.35;;;;;;;;;;5012896;28;20045;-51
2023/10/03 11:34:29;;;;;;;6.40;5.95;;;;;;;;;;5060395;28;20040;-52
2023/10/03 11:36:55;;;;;;;4.88;4.47;;;;;;;;;;5050723;28;20033;-54
2023/10/03 11:39:23;;;;;;;6.35;4.18;;;;;;;;;;5055501;28;20080;-50
2023/10/03 11:41:49;;;;;;;5.25;4.85;;;;;;;;;;5057061;28;20075;-48
2023/10/03 11:44:22;;;;;;;6.03;5.63;;;;;;;;;;5049917;28;20017;-53
2023/10/03 11:46:48;;;;;;;6.32;5.82;;;;;;;;;;5047426;28;20029;-48
2023/10/03 11:49:15;;;;;;;5.45;5.05;;;;;;;;;;5051408;28;20041;-52
2023/10/03 11:51:44;;;;;;;4.55;4.15;;;;;;;;;;5051537;28;20063;-51
2023/10/03 11:54:11;;;;;;;5.10;4.22;;;;;;;;;;5045139;28;20037;-51
2023/10/03 11:56:48;;;;;;;6.88;6.47;;;;;;;;;;5055223;28;20037;-50
2023/10/03 11:59:15;;;;;;;5.45;4.95;;;;;;;;;;5051769;28;20058;-52
2023/10/03 12:01:48;;;;;;;6.30;5.82;;;;;;;;;;5049818;28;20025;-55
2023/10/03 12:04:15;;;;;;;6.18;5.63;;;;;;;;;;5048785;28;20025;-50
2023/10/03 12:06:41;;;;;;;6.88;6.07;;;;;;;;;;5061555;28;20494;-52
2023/10/03 12:09:09;;;;;;;5.55;5.10;;;;;;;;;;5053307;28;20106;-51
2023/10/03 12:11:36;;;;;;;7.57;6.97;;;;;;;;;;5054590;28;20043;-48
2023/10/03 12:14:02;;;;;;;8.32;5.90;;;;;;;;;;5053390;28;20092;-49
2023/10/03 12:16:27;;;;;;;6.45;5.60;;;;;;;;;;5051023;28;21035;-52
2023/10/03 12:18:52;;;;;;;6.63;6.10;;;;;;;;;;5048493;28;20040;-51
2023/10/03 12:21:18;;;;;;;7.22;6.43;;;;;;;;;;5055616;28;20041;-47
2023/10/03 12:23:45;;;;;;;6.93;6.40;;;;;;;;;;5058686;28;20023;-53
2023/10/03 12:26:11;;;;;;;8.25;6.45;;;;;;;;;;5060427;28;20037;-54
2023/10/03 12:28:36;;;;;;;6.35;5.85;;;;;;;;;;5055508;28;20031;-51
2023/10/03 12:31:02;;;;;;;6.85;6.25;;;;;;;;;;5055593;28;20036;-49
2023/10/03 12:33:28;;;;;;;6.60;6.00;;;;;;;;;;5055792;28;20441;-49
2023/10/03 12:35:54;;;;;;;7.38;6.78;;;;;;;;;;5051292;28;20116;-51
2023/10/03 12:38:20;;;;;;;6.85;6.25;;;;;;;;;;5052739;28;20055;-52
2023/10/03 12:40:47;;;;;;;8.85;6.45;;;;;;;;;;5045282;28;20033;-49
2023/10/03 12:43:12;;;;;;;7.43;6.78;;;;;;;;;;5056979;28;20048;-52
2023/10/03 12:45:38;;;;;;;6.65;6.07;;;;;;;;;;5061765;28;20029;-48
2023/10/03 12:48:05;;;;;;;5.53;5.03;;;;;;;;;;5053902;28;20021;-51
2023/10/03 12:50:31;;;;;;;7.78;5.88;;;;;;;;;;5053427;28;20776;-50
2023/10/03 12:53:01;;;;;;;5.15;4.72;;;;;;;;;;5055657;28;20025;-51
2023/10/03 12:55:29;;;;;;;7.47;6.75;;;;;;;;;;5055647;28;20034;-50
2023/10/03 12:58:02;;;;;;;7.28;6.57;;;;;;;;;;5052439;28;20067;-50
2023/10/03 13:00:28;;;;;;;7.75;5.43;;;;;;;;;;5068658;28;20029;-49
2023/10/03 13:02:56;;;;;;;5.78;5.28;;;;;;;;;;5062785;28;20032;-52
2023/10/03 13:05:23;;;;;;;6.53;5.78;;;;;;;;;;5052362;28;20038;-54
2023/10/03 13:07:49;;;;;;;6.95;6.25;;;;;;;;;;5058736;28;21219;-50
2023/10/03 13:10:17;;;;;;;7.22;5.45;;;;;;;;;;5050770;28;20035;-50
2023/10/03 13:12:43;;;;;;;6.88;4.90;;;;;;;;;;5054610;28;20031;-52
2023/10/03 13:15:16;;;;;;;5.60;4.78;;;;;;;;;;5054720;28;20107;-48
2023/10/03 13:17:49;;;;;;;8.02;5.55;;;;;;;;;;5059016;28;20025;-48
2023/10/03 13:20:18;;;;;;;4.88;4.47;;;;;;;;;;5054498;28;20033;-46
2023/10/03 13:22:44;;;;;;;;;;;;;;;;;;5063309;28;20024;-47
2023/10/03 13:25:11;;;;;;;6.55;5.38;;;;;;;;;;5067284;28;19912;-51
2023/10/03 13:27:37;;;;;;;4.68;4.32;;;;;;;;;;5059427;28;20033;-51
2023/10/03 13:30:04;;;;;;;8.18;5.07;;;;;;;;;;5055694;28;20159;-48
2023/10/03 13:32:29;;;;;;;6.18;5.57;;;;;;;;;;5057424;28;20040;-47
2023/10/03 13:34:54;;;;;;;6.05;5.18;;;;;;;;;;5063836;28;20029;-49
2023/10/03 13:37:20;;;;;;;5.47;5.00;;;;;;;;;;5055104;28;20087;-50
2023/10/03 13:39:48;;;;;;;5.72;5.13;;;;;;;;;;5056364;28;20055;-51
2023/10/03 13:42:14;;;;;;;6.05;5.45;;;;;;;;;;5060304;28;20371;-50
2023/10/03 13:44:39;;;;;;;6.22;5.47;;;;;;;;;;5064216;28;20086;-51
2023/10/03 13:47:06;;;;;;;6.55;4.95;;;;;;;;;;5057762;28;20041;-49
2023/10/03 13:49:31;;;;;;;5.47;4.97;;;;;;;;;;5081620;28;20076;-49
2023/10/03 13:51:57;;;;;;;6.03;5.07;;;;;;;;;;5058070;28;20060;-48
2023/10/03 13:54:24;;;;;;;6.75;5.13;;;;;;;;;;5060205;28;20029;-49
2023/10/03 13:56:49;;;;;;;6.03;5.03;;;;;;;;;;5057673;28;20053;-51
2023/10/03 13:59:15;;;;;;;6.28;5.32;;;;;;;;;;5062120;28;20035;-50
2023/10/03 14:01:40;;;;;;;7.90;6.00;;;;;;;;;;5067305;28;20040;-48
2023/10/03 14:04:08;;;;;;;5.63;4.78;;;;;;;;;;5055509;28;20494;-51
2023/10/03 14:06:34;;;;;;;5.65;4.85;;;;;;;;;;5052613;28;20045;-48
2023/10/03 14:08:59;;;;;;;5.93;4.68;;;;;;;;;;5061495;28;20036;-50
2023/10/03 14:11:25;;;;;;;5.85;5.28;;;;;;;;;;5055343;28;20403;-49
2023/10/03 14:13:53;;;;;;;4.57;4.15;;;;;;;;;;5052958;28;20032;-48
2023/10/03 14:16:21;;;;;;;5.30;4.43;;;;;;;;;;5055101;28;20037;-46
2023/10/03 14:18:51;;;;;;;5.30;4.35;;;;;;;;;;5055716;28;20107;-50
2023/10/03 14:21:19;;;;;;;5.35;4.57;;;;;;;;;;5058503;28;20033;-51
2023/10/03 14:23:44;;;;;;;;;;;;;;;;;;5058344;28;20055;-47
2023/10/03 14:26:10;;;;;;;5.13;4.45;;;;;;;;;;5047808;28;20371;-49
2023/10/03 14:28:35;;;;;;;6.07;5.43;;;;;;;;;;5060782;28;20047;-51
2023/10/03 14:31:02;;;;;;;5.28;4.78;;;;;;;;;;5055187;28;20037;-50
2023/10/03 14:33:31;;;;;;;6.30;4.70;;;;;;;;;;5059608;28;20416;-50
2023/10/03 14:35:59;;;;;;;5.93;5.30;;;;;;;;;;5064989;28;20037;-50
2023/10/03 14:38:28;;;;;;;6.95;4.90;;;;;;;;;;5042833;28;20021;-47
2023/10/03 14:40:55;;;;;;;6.68;4.97;;;;;;;;;;5055330;28;20041;-50
2023/10/03 14:43:21;;;;;;;5.63;4.75;;;;;;;;;;5062117;28;20028;-47
2023/10/03 14:45:47;;;;;;;6.88;5.85;;;;;;;;;;5058980;28;20079;-49
2023/10/03 14:48:12;;;;;;;6.68;5.47;;;;;;;;;;5057534;28;20090;-51
2023/10/03 14:50:39;;;;;;;6.75;5.20;;;;;;;;;;5059156;28;20041;-47